createdAt,value
2019-04-04T00:00:30.126Z,54.13
2019-04-04T00:03:01.487Z,53.67
2019-04-04T00:05:32.731Z,53.91
2019-04-04T00:08:03.972Z,53.90
2019-04-04T00:10:35.297Z,53.27
2019-04-04T00:13:06.652Z,53.93
2019-04-04T00:15:38.008Z,53.63
2019-04-04T00:18:09.343Z,53.67
2019-04-04T00:20:40.672Z,53.60
2019-04-04T00:23:12.016Z,54.51
2019-04-04T00:25:43.348Z,54.04
2019-04-04T00:28:14.959Z,53.70
2019-04-04T00:30:48.406Z,54.18
2019-04-04T00:33:20.413Z,54.40
2019-04-04T00:35:51.726Z,54.47
2019-04-04T00:38:23.075Z,54.14
2019-04-04T00:40:54.418Z,54.61
2019-04-04T00:43:25.577Z,54.87
2019-04-04T00:45:56.962Z,54.42
2019-04-04T00:48:28.297Z,54.59
2019-04-04T00:50:59.647Z,54.92
2019-04-04T00:53:31.021Z,54.69
2019-04-04T00:56:02.490Z,55.24
2019-04-04T00:58:33.851Z,54.99
2019-04-04T01:01:05.197Z,55.02
2019-04-04T01:03:36.591Z,54.88
2019-04-04T01:06:07.916Z,55.02
2019-04-04T01:08:39.301Z,55.92
2019-04-04T01:11:10.656Z,54.96
2019-04-04T01:13:42.069Z,54.76
2019-04-04T01:16:13.437Z,54.48
2019-04-04T01:18:44.744Z,54.41
2019-04-04T01:21:16.099Z,54.30
2019-04-04T01:23:47.456Z,54.31
2019-04-04T01:26:18.785Z,54.38
2019-04-04T01:28:50.196Z,54.39
2019-04-04T01:31:21.579Z,54.33
2019-04-04T01:33:52.911Z,54.15
2019-04-04T01:36:25.331Z,53.87
2019-04-04T01:38:58.103Z,54.37
2019-04-04T01:41:30.595Z,54.07
2019-04-04T01:44:05.342Z,53.76
2019-04-04T01:46:35.154Z,53.27
2019-04-04T01:49:06.529Z,53.14
2019-04-04T01:51:37.856Z,53.18
2019-04-04T01:54:09.212Z,52.79
2019-04-04T01:56:40.550Z,53.53
2019-04-04T01:59:12.256Z,54.14
2019-04-04T02:01:46.567Z,53.89
2019-04-04T02:04:17.647Z,53.84
2019-04-04T02:06:48.990Z,54.16
2019-04-04T02:09:20.420Z,53.58
2019-04-04T02:11:51.810Z,54.04
2019-04-04T02:14:23.151Z,52.28
2019-04-04T02:16:54.545Z,50.90
2019-04-04T02:19:25.916Z,51.26
2019-04-04T02:21:57.886Z,50.72
2019-04-04T02:24:31.821Z,49.97
2019-04-04T02:27:04.917Z,49.89
2019-04-04T02:29:36.395Z,50.23
2019-04-04T02:32:12.152Z,50.04
2019-04-04T02:34:43.542Z,49.23
2019-04-04T02:37:14.843Z,49.56
2019-04-04T02:39:46.821Z,47.86
2019-04-04T02:42:20.954Z,47.81
2019-04-04T02:44:51.244Z,48.12
2019-04-04T02:47:22.665Z,47.93
2019-04-04T02:49:53.949Z,47.55
2019-04-04T02:52:25.298Z,47.79
2019-04-04T02:54:58.268Z,46.20
2019-04-04T02:57:29.656Z,46.98
2019-04-04T03:00:00.954Z,46.11
2019-04-04T03:02:36.170Z,45.55
2019-04-04T03:05:06.479Z,45.55
2019-04-04T03:07:39.016Z,45.99
2019-04-04T03:10:15.143Z,45.92
2019-04-04T03:12:43.387Z,45.50
2019-04-04T03:15:14.672Z,45.58
2019-04-04T03:17:46.010Z,44.94
2019-04-04T03:20:17.668Z,45.47
2019-04-04T03:22:49.175Z,45.58
2019-04-04T03:25:20.523Z,45.88
2019-04-04T03:27:51.786Z,45.46
2019-04-04T03:30:23.169Z,45.61
2019-04-04T03:32:55.412Z,45.15
2019-04-04T03:35:28.933Z,45.12
2019-04-04T03:38:00.252Z,45.76
2019-04-04T03:40:31.548Z,44.87
2019-04-04T03:43:02.900Z,44.89
2019-04-04T03:45:34.223Z,44.46
2019-04-04T03:48:05.602Z,45.49
2019-04-04T03:50:36.890Z,45.82
2019-04-04T03:53:08.265Z,44.71
2019-04-04T03:55:39.623Z,44.71
2019-04-04T03:58:11.003Z,44.79
2019-04-04T04:00:42.431Z,43.56
2019-04-04T04:03:13.794Z,44.49
2019-04-04T04:05:45.179Z,43.62
2019-04-04T04:08:20.987Z,43.88
2019-04-04T04:10:49.634Z,43.89
2019-04-04T04:13:20.993Z,43.07
2019-04-04T04:15:52.435Z,43.22
2019-04-04T04:18:23.739Z,43.39
2019-04-04T04:20:55.104Z,42.80
2019-04-04T04:23:26.579Z,42.82
2019-04-04T04:25:57.914Z,43.06
2019-04-04T04:28:29.304Z,41.71
2019-04-04T04:31:00.685Z,42.27
2019-04-04T04:33:32.047Z,42.95
2019-04-04T04:36:03.403Z,41.27
2019-04-04T04:38:34.746Z,40.77
2019-04-04T04:41:06.129Z,40.97
2019-04-04T04:43:37.394Z,40.93
2019-04-04T04:46:08.713Z,40.61
2019-04-04T04:48:40.152Z,41.62
2019-04-04T04:51:11.997Z,41.16
2019-04-04T04:53:44.208Z,40.89
2019-04-04T04:56:17.488Z,41.64
2019-04-04T04:58:48.624Z,42.04
2019-04-04T05:01:19.971Z,41.52
2019-04-04T05:03:51.263Z,41.62
2019-04-04T05:06:22.711Z,41.50
2019-04-04T05:08:54.058Z,41.49
2019-04-04T05:11:25.420Z,40.83
2019-04-04T05:13:58.168Z,40.98
2019-04-04T05:16:29.963Z,40.70
2019-04-04T05:19:01.328Z,39.04
2019-04-04T05:21:34.541Z,38.64
2019-04-04T05:24:05.777Z,39.41
2019-04-04T05:26:38.565Z,38.09
2019-04-04T05:29:13.062Z,36.02
2019-04-04T05:31:43.395Z,37.23
2019-04-04T05:34:14.766Z,37.53
2019-04-04T05:36:47.337Z,35.54
2019-04-04T05:39:18.820Z,36.56
2019-04-04T05:41:50.138Z,36.86
2019-04-04T05:44:21.506Z,36.56
2019-04-04T05:46:52.857Z,35.30
2019-04-04T05:49:24.337Z,34.89
2019-04-04T05:51:55.743Z,36.32
2019-04-04T05:54:27.103Z,35.89
2019-04-04T05:56:58.457Z,34.95
2019-04-04T05:59:29.786Z,34.89
2019-04-04T06:02:01.143Z,34.95
2019-04-04T06:04:32.416Z,34.75
2019-04-04T06:07:04.451Z,34.54
2019-04-04T06:09:36.508Z,35.29
2019-04-04T06:12:07.841Z,33.67
2019-04-04T06:14:39.152Z,33.73
2019-04-04T06:17:10.550Z,33.26
2019-04-04T06:19:44.369Z,33.02
2019-04-04T06:22:14.870Z,31.84
2019-04-04T06:24:46.143Z,33.05
2019-04-04T06:27:17.546Z,31.62
2019-04-04T06:29:49.086Z,32.09
2019-04-04T06:32:20.564Z,31.39
2019-04-04T06:34:51.928Z,31.34
2019-04-04T06:37:23.206Z,30.80
2019-04-04T06:39:58.351Z,31.31
2019-04-04T06:42:27.587Z,30.44
2019-04-04T06:44:58.957Z,30.22
2019-04-04T06:47:32.339Z,29.92
2019-04-04T06:50:07.109Z,30.61
2019-04-04T06:52:36.314Z,31.24
2019-04-04T06:55:07.707Z,30.73
2019-04-04T06:57:39.097Z,31.09
2019-04-04T07:00:10.403Z,29.75
2019-04-04T07:02:41.782Z,30.09
2019-04-04T07:05:13.273Z,29.10
2019-04-04T07:07:44.607Z,29.25
2019-04-04T07:10:16.010Z,28.63
2019-04-04T07:12:48.913Z,29.03
2019-04-04T07:15:20.678Z,28.07
2019-04-04T07:17:52.116Z,27.92
2019-04-04T07:20:23.464Z,27.74
2019-04-04T07:22:55.940Z,29.15
2019-04-04T07:25:27.639Z,28.43
2019-04-04T07:27:59.057Z,28.70
2019-04-04T07:30:30.612Z,27.94
2019-04-04T07:33:01.988Z,27.42
2019-04-04T07:35:33.599Z,29.70
2019-04-04T07:38:05.098Z,27.62
2019-04-04T07:40:37.384Z,27.42
2019-04-04T07:43:09.164Z,26.86
2019-04-04T07:45:40.512Z,26.98
2019-04-04T07:48:12.373Z,28.62
2019-04-04T07:50:44.105Z,26.76
2019-04-04T07:53:15.549Z,27.30
2019-04-04T07:55:46.880Z,27.12
2019-04-04T07:58:18.218Z,26.91
2019-04-04T08:00:49.604Z,25.65
2019-04-04T08:03:20.963Z,26.16
2019-04-04T08:05:52.337Z,26.36
2019-04-04T08:08:25.201Z,26.00
2019-04-04T08:10:56.588Z,26.21
2019-04-04T08:13:27.939Z,25.54
2019-04-04T08:15:59.430Z,25.96
2019-04-04T08:18:30.827Z,25.97
2019-04-04T08:21:02.171Z,25.71
2019-04-04T08:23:33.564Z,25.37
2019-04-04T08:26:04.874Z,25.99
2019-04-04T08:28:36.126Z,24.37
2019-04-04T08:31:09.770Z,24.61
2019-04-04T08:33:40.548Z,24.99
2019-04-04T08:36:11.888Z,26.27
2019-04-04T08:38:43.298Z,25.36
2019-04-04T08:41:14.676Z,23.99
2019-04-04T08:43:46.008Z,24.48
2019-04-04T08:46:19.704Z,24.87
2019-04-04T08:48:51.414Z,24.88
2019-04-04T08:51:22.748Z,24.82
2019-04-04T08:53:54.113Z,24.61
2019-04-04T08:56:25.473Z,24.99
2019-04-04T08:58:56.814Z,24.55
2019-04-04T09:01:28.067Z,24.29
2019-04-04T09:03:59.274Z,23.88
2019-04-04T09:06:30.457Z,23.85
2019-04-04T09:09:01.814Z,25.84
2019-04-04T09:11:33.149Z,24.80
2019-04-04T09:14:04.342Z,24.45
2019-04-04T09:16:35.731Z,25.61
2019-04-04T09:19:07.083Z,24.76
2019-04-04T09:21:38.412Z,25.34
2019-04-04T09:24:09.856Z,25.00
2019-04-04T09:26:41.293Z,24.63
2019-04-04T09:29:12.643Z,24.42
2019-04-04T09:31:44.023Z,24.42
2019-04-04T09:34:15.383Z,25.04
2019-04-04T09:36:46.770Z,24.42
2019-04-04T09:39:19.008Z,24.70
2019-04-04T09:41:50.387Z,25.26
2019-04-04T09:44:21.850Z,24.30
2019-04-04T09:47:04.867Z,24.61
2019-04-04T09:49:27.307Z,23.71
2019-04-04T09:51:58.646Z,23.35
2019-04-04T09:54:30.010Z,23.47
2019-04-04T09:57:01.382Z,23.11
2019-04-04T09:59:32.724Z,23.64
2019-04-04T10:02:04.073Z,23.08
2019-04-04T10:04:35.465Z,23.41
2019-04-04T10:07:06.813Z,23.49
2019-04-04T10:09:38.200Z,23.35
2019-04-04T10:12:10.796Z,24.43
2019-04-04T10:14:45.404Z,24.20
2019-04-04T10:17:16.788Z,23.70
2019-04-04T10:19:48.285Z,23.97
2019-04-04T10:22:19.669Z,23.91
2019-04-04T10:24:51.024Z,24.35
2019-04-04T10:27:22.291Z,23.67
2019-04-04T10:29:53.667Z,23.82
2019-04-04T10:32:24.930Z,24.18
2019-04-04T10:34:56.273Z,23.85
2019-04-04T10:37:27.790Z,23.93
2019-04-04T10:39:59.148Z,23.41
2019-04-04T10:42:30.535Z,24.32
2019-04-04T10:45:03.103Z,23.54
2019-04-04T10:47:34.436Z,24.39
2019-04-04T10:50:09.594Z,23.95
2019-04-04T10:52:40.932Z,23.86
2019-04-04T10:55:12.377Z,24.53
2019-04-04T10:57:43.750Z,23.62
2019-04-04T11:00:15.161Z,24.39
2019-04-04T11:02:46.523Z,23.67
2019-04-04T11:05:17.850Z,23.75
2019-04-04T11:07:49.131Z,23.38
2019-04-04T11:10:20.496Z,23.87
2019-04-04T11:12:52.429Z,23.50
2019-04-04T11:15:24.131Z,25.04
2019-04-04T11:17:55.503Z,23.94
2019-04-04T11:20:26.878Z,24.35
2019-04-04T11:22:58.266Z,23.18
2019-04-04T11:25:29.645Z,23.76
2019-04-04T11:28:01.107Z,23.78
2019-04-04T11:30:32.475Z,23.57
2019-04-04T11:33:03.819Z,24.16
2019-04-04T11:35:36.131Z,23.15
2019-04-04T11:38:07.388Z,23.59
2019-04-04T11:40:38.721Z,23.62
2019-04-04T11:43:10.005Z,23.52
2019-04-04T11:45:41.340Z,23.09
2019-04-04T11:48:12.815Z,22.85
2019-04-04T11:50:44.073Z,22.99
2019-04-04T11:53:15.417Z,23.68
2019-04-04T11:55:46.777Z,23.30
2019-04-04T11:58:18.135Z,23.17
2019-04-04T12:00:54.166Z,23.40
2019-04-04T12:03:25.546Z,23.00
2019-04-04T12:05:57.037Z,23.21
2019-04-04T12:08:28.409Z,22.49
2019-04-04T12:11:00.348Z,23.66
2019-04-04T12:13:31.693Z,22.57
2019-04-04T12:16:03.043Z,22.97
2019-04-04T12:18:34.377Z,22.62
2019-04-04T12:21:05.697Z,22.85
2019-04-04T12:23:37.055Z,23.38
2019-04-04T12:26:08.370Z,22.74
2019-04-04T12:28:39.716Z,23.21
2019-04-04T12:31:11.084Z,22.99
2019-04-04T12:33:42.529Z,23.62
2019-04-04T12:36:24.128Z,23.84
2019-04-04T12:38:46.948Z,23.83
2019-04-04T12:41:18.295Z,23.65
2019-04-04T12:43:49.660Z,23.10
2019-04-04T12:46:20.999Z,23.90
2019-04-04T12:48:52.379Z,23.60
2019-04-04T12:51:23.734Z,23.66
2019-04-04T12:53:55.119Z,22.82
2019-04-04T12:56:26.546Z,23.48
2019-04-04T12:58:59.180Z,23.43
2019-04-04T13:01:30.556Z,23.24
2019-04-04T13:04:01.918Z,23.55
2019-04-04T13:06:33.296Z,23.29
2019-04-04T13:09:07.146Z,24.30
2019-04-04T13:11:38.579Z,24.23
2019-04-04T13:14:09.926Z,25.00
2019-04-04T13:16:41.290Z,24.24
2019-04-04T13:19:12.613Z,25.22
2019-04-04T13:21:43.954Z,24.74
2019-04-04T13:24:15.293Z,23.90
2019-04-04T13:26:46.681Z,24.99
2019-04-04T13:29:18.016Z,25.11
2019-04-04T13:31:49.373Z,24.33
2019-04-04T13:34:20.750Z,23.77
2019-04-04T13:36:52.844Z,24.71
2019-04-04T13:39:24.133Z,24.42
2019-04-04T13:41:55.492Z,24.16
2019-04-04T13:44:26.854Z,24.26
2019-04-04T13:46:58.218Z,24.30
2019-04-04T13:49:29.645Z,23.83
2019-04-04T13:52:01.117Z,24.05
2019-04-04T13:54:32.464Z,23.69
2019-04-04T13:57:03.876Z,23.78
2019-04-04T13:59:35.272Z,24.24
2019-04-04T14:02:06.685Z,24.84
2019-04-04T14:04:38.020Z,24.67
2019-04-04T14:07:09.387Z,24.57
2019-04-04T14:09:44.321Z,25.02
2019-04-04T14:12:14.323Z,25.01
2019-04-04T14:14:46.103Z,24.72
2019-04-04T14:17:17.485Z,25.04
2019-04-04T14:19:48.835Z,24.36
2019-04-04T14:22:20.158Z,24.00
2019-04-04T14:24:51.428Z,24.25
2019-04-04T14:27:22.883Z,24.80
2019-04-04T14:29:55.348Z,25.20
2019-04-04T14:32:27.069Z,25.45
2019-04-04T14:34:58.435Z,25.19
2019-04-04T14:37:29.695Z,25.61
2019-04-04T14:40:01.067Z,25.47
2019-04-04T14:42:32.387Z,25.30
2019-04-04T14:45:06.526Z,25.60
2019-04-04T14:47:37.710Z,25.16
2019-04-04T14:50:09.090Z,25.48
2019-04-04T14:52:40.453Z,25.40
2019-04-04T14:55:11.837Z,25.87
2019-04-04T14:57:43.249Z,25.37
2019-04-04T15:00:16.184Z,25.49
2019-04-04T15:02:47.572Z,25.93
2019-04-04T15:05:18.975Z,25.99
2019-04-04T15:07:50.325Z,26.08
2019-04-04T15:10:21.684Z,26.01
2019-04-04T15:12:53.069Z,26.10
2019-04-04T15:15:26.277Z,25.96
2019-04-04T15:17:57.616Z,26.96
2019-04-04T15:20:29.333Z,26.53
2019-04-04T15:23:00.685Z,27.27
2019-04-04T15:25:32.040Z,26.26
2019-04-04T15:28:03.330Z,26.47
2019-04-04T15:30:34.661Z,26.47
2019-04-04T15:33:06.026Z,27.22
2019-04-04T15:35:37.374Z,27.12
2019-04-04T15:38:08.728Z,26.98
2019-04-04T15:40:40.101Z,27.27
2019-04-04T15:43:11.560Z,27.17
2019-04-04T15:45:42.945Z,27.64
2019-04-04T15:48:14.392Z,27.53
2019-04-04T15:50:45.794Z,27.63
2019-04-04T15:53:19.448Z,27.84
2019-04-04T15:55:50.826Z,27.88
2019-04-04T15:58:22.190Z,27.75
2019-04-04T16:00:53.549Z,28.08
2019-04-04T16:03:24.899Z,28.35
2019-04-04T16:05:56.275Z,28.07
2019-04-04T16:08:27.628Z,28.41
2019-04-04T16:10:59.981Z,28.29
2019-04-04T16:13:31.320Z,28.58
2019-04-04T16:16:02.626Z,28.80
2019-04-04T16:18:34.001Z,28.92
2019-04-04T16:21:05.397Z,29.02
2019-04-04T16:23:36.791Z,29.15
2019-04-04T16:26:08.162Z,29.14
2019-04-04T16:28:39.543Z,29.40
2019-04-04T16:31:10.888Z,29.90
2019-04-04T16:33:42.213Z,29.78
2019-04-04T16:36:13.477Z,29.90
2019-04-04T16:38:44.883Z,30.35
2019-04-04T16:41:16.342Z,31.01
2019-04-04T16:43:50.148Z,31.53
2019-04-04T16:46:21.481Z,31.69
2019-04-04T16:48:52.866Z,32.05
2019-04-04T16:51:24.199Z,31.80
2019-04-04T16:53:55.447Z,32.43
2019-04-04T16:56:26.793Z,31.98
2019-04-04T16:58:58.314Z,31.11
2019-04-04T17:01:29.863Z,31.68
2019-04-04T17:04:02.108Z,31.96
2019-04-04T17:06:33.954Z,32.76
2019-04-04T17:09:07.516Z,33.60
2019-04-04T17:11:38.957Z,33.24
2019-04-04T17:14:10.306Z,33.37
2019-04-04T17:16:41.723Z,33.67
2019-04-04T17:19:13.123Z,34.04
2019-04-04T17:21:45.155Z,33.63
2019-04-04T17:24:16.473Z,33.89
2019-04-04T17:26:51.008Z,34.17
2019-04-04T17:29:22.405Z,34.23
2019-04-04T17:31:53.846Z,34.57
2019-04-04T17:34:25.226Z,34.16
2019-04-04T17:36:56.608Z,34.71
2019-04-04T17:39:28.253Z,35.39
2019-04-04T17:41:59.765Z,35.65
2019-04-04T17:44:31.211Z,36.08
2019-04-04T17:47:03.118Z,36.58
2019-04-04T17:49:34.427Z,36.85
2019-04-04T17:52:05.870Z,36.26
2019-04-04T17:54:37.371Z,36.43
2019-04-04T17:57:08.753Z,36.66
2019-04-04T17:59:40.176Z,36.92
2019-04-04T18:02:11.655Z,36.93
2019-04-04T18:04:48.455Z,37.25
2019-04-04T18:07:16.100Z,37.27
2019-04-04T18:09:47.503Z,36.73
2019-04-04T18:12:18.955Z,37.38
2019-04-04T18:14:50.300Z,37.32
2019-04-04T18:17:21.644Z,37.47
2019-04-04T18:19:53.013Z,38.00
2019-04-04T18:22:25.943Z,37.97
2019-04-04T18:24:57.317Z,38.29
2019-04-04T18:27:28.717Z,36.98
2019-04-04T18:30:00.063Z,37.75
2019-04-04T18:32:31.417Z,37.28
2019-04-04T18:35:02.780Z,37.51
2019-04-04T18:37:34.517Z,38.08
2019-04-04T18:40:07.781Z,38.60
2019-04-04T18:42:39.131Z,39.19
2019-04-04T18:45:12.002Z,39.26
2019-04-04T18:47:43.369Z,39.16
2019-04-04T18:50:14.720Z,38.50
2019-04-04T18:52:46.151Z,38.97
2019-04-04T18:55:19.977Z,39.82
2019-04-04T18:57:50.915Z,40.10
2019-04-04T19:00:22.284Z,40.21
2019-04-04T19:02:53.737Z,39.36
2019-04-04T19:05:25.162Z,39.66
2019-04-04T19:07:56.424Z,39.62
2019-04-04T19:10:27.786Z,40.25
2019-04-04T19:13:05.119Z,40.14
2019-04-04T19:15:33.409Z,40.41
2019-04-04T19:18:04.767Z,40.00
2019-04-04T19:20:36.139Z,39.94
2019-04-04T19:23:07.524Z,40.76
2019-04-04T19:25:38.906Z,40.45
2019-04-04T19:28:10.272Z,40.41
2019-04-04T19:30:41.551Z,40.13
2019-04-04T19:33:12.918Z,40.41
2019-04-04T19:35:44.266Z,40.57
2019-04-04T19:38:15.559Z,41.29
2019-04-04T19:40:47.076Z,41.15
2019-04-04T19:43:18.674Z,40.61
2019-04-04T19:45:50.047Z,40.57
2019-04-04T19:48:21.418Z,40.78
2019-04-04T19:50:52.775Z,41.13
2019-04-04T19:53:24.150Z,41.18
2019-04-04T19:55:55.544Z,40.65
2019-04-04T19:58:27.483Z,40.73
2019-04-04T20:00:58.955Z,41.16
2019-04-04T20:03:30.849Z,38.52
2019-04-04T20:06:02.123Z,35.08
2019-04-04T20:08:33.501Z,34.30
2019-04-04T20:11:04.867Z,33.63
2019-04-04T20:13:36.229Z,34.06
2019-04-04T20:16:07.488Z,34.64
2019-04-04T20:18:38.902Z,34.25
2019-04-04T20:21:11.380Z,34.88
2019-04-04T20:23:42.737Z,34.31
2019-04-04T20:26:14.084Z,35.29
2019-04-04T20:28:45.402Z,35.90
2019-04-04T20:31:16.778Z,36.13
2019-04-04T20:34:00.606Z,36.69
2019-04-04T20:36:21.258Z,36.30
2019-04-04T20:38:52.497Z,36.11
2019-04-04T20:41:23.818Z,36.02
2019-04-04T20:43:55.183Z,35.96
2019-04-04T20:46:26.530Z,37.14
2019-04-04T20:48:57.892Z,38.55
2019-04-04T20:51:29.245Z,38.40
2019-04-04T20:54:00.613Z,39.32
2019-04-04T20:56:31.980Z,39.97
2019-04-04T20:59:03.262Z,40.63
2019-04-04T21:01:34.614Z,40.59
2019-04-04T21:04:05.954Z,41.12
2019-04-04T21:06:37.300Z,41.51
2019-04-04T21:09:08.723Z,41.21
2019-04-04T21:11:40.005Z,40.94
2019-04-04T21:14:11.512Z,41.00
2019-04-04T21:16:42.868Z,42.19
2019-04-04T21:19:14.204Z,41.88
2019-04-04T21:21:45.570Z,41.01
2019-04-04T21:24:16.934Z,41.42
2019-04-04T21:26:48.409Z,42.74
2019-04-04T21:29:19.872Z,44.27
2019-04-04T21:31:51.215Z,44.27
2019-04-04T21:34:22.600Z,43.83
2019-04-04T21:36:53.886Z,43.92
2019-04-04T21:39:25.279Z,43.91
2019-04-04T21:41:56.535Z,43.65
2019-04-04T21:44:27.818Z,44.04
2019-04-04T21:46:59.196Z,43.61
2019-04-04T21:49:30.592Z,44.03
2019-04-04T21:52:01.941Z,44.11
2019-04-04T21:54:33.304Z,43.07
2019-04-04T21:57:04.639Z,43.52
2019-04-04T21:59:35.952Z,44.04
2019-04-04T22:02:07.412Z,44.62
2019-04-04T22:04:38.740Z,44.44
2019-04-04T22:07:10.156Z,45.08
2019-04-04T22:09:41.537Z,45.54
2019-04-04T22:12:12.885Z,45.19
2019-04-04T22:14:44.210Z,45.73
2019-04-04T22:17:15.556Z,45.81
2019-04-04T22:19:46.913Z,46.14
2019-04-04T22:22:18.196Z,46.21
2019-04-04T22:24:49.548Z,46.61
2019-04-04T22:27:20.890Z,46.68
2019-04-04T22:29:52.225Z,48.04
2019-04-04T22:32:23.572Z,47.06
2019-04-04T22:34:54.936Z,47.14
2019-04-04T22:37:26.284Z,47.35
2019-04-04T22:39:57.360Z,47.12
2019-04-04T22:42:28.711Z,47.58
2019-04-04T22:45:00.072Z,47.86
2019-04-04T22:47:31.458Z,46.85
2019-04-04T22:50:02.813Z,47.32
2019-04-04T22:52:34.185Z,47.69
2019-04-04T22:55:06.542Z,47.65
2019-04-04T22:57:37.858Z,47.29
2019-04-04T23:00:09.209Z,47.91
2019-04-04T23:02:42.214Z,47.28
2019-04-04T23:05:13.484Z,48.68
2019-04-04T23:07:44.823Z,47.72
2019-04-04T23:10:16.249Z,47.88
2019-04-04T23:12:47.534Z,49.43
2019-04-04T23:15:18.816Z,49.62
2019-04-04T23:17:50.166Z,48.58
2019-04-04T23:20:21.509Z,48.57
2019-04-04T23:22:53.324Z,49.46
2019-04-04T23:25:24.129Z,49.96
2019-04-04T23:27:55.195Z,49.92
2019-04-04T23:30:26.542Z,49.58
2019-04-04T23:32:57.917Z,50.16
2019-04-04T23:35:29.278Z,49.75
2019-04-04T23:38:00.530Z,49.29
2019-04-04T23:40:32.447Z,50.06
2019-04-04T23:43:03.677Z,50.24
2019-04-04T23:45:35.139Z,51.43
2019-04-04T23:48:06.494Z,50.82
2019-04-04T23:50:37.833Z,49.65
2019-04-04T23:53:09.172Z,50.06
2019-04-04T23:55:40.518Z,50.61
2019-04-04T23:58:11.833Z,50.30
